createdAt,value
2023-05-25T00:02:48.825Z,78.98
2023-05-25T00:06:38.861Z,78.76
2023-05-25T00:10:27.393Z,78.57
2023-05-25T00:14:17.954Z,78.20
2023-05-25T00:18:06.511Z,78.74
2023-05-25T00:21:54.586Z,79.39
2023-05-25T00:25:43.358Z,79.62
2023-05-25T00:29:32.178Z,79.67
2023-05-25T00:33:21.359Z,79.73
2023-05-25T00:37:10.213Z,79.48
2023-05-25T00:40:58.690Z,79.10
2023-05-25T00:44:39.671Z,78.74
2023-05-25T00:48:22.372Z,78.46
2023-05-25T00:52:11.302Z,78.06
2023-05-25T00:55:59.754Z,78.01
2023-05-25T00:59:41.655Z,78.39
2023-05-25T01:03:30.301Z,78.72
2023-05-25T01:07:18.917Z,78.90
2023-05-25T01:11:07.547Z,79.18
2023-05-25T01:14:55.991Z,79.25
2023-05-25T01:18:44.505Z,78.95
2023-05-25T01:22:45.158Z,78.70
2023-05-25T01:26:37.508Z,78.46
2023-05-25T01:30:26.029Z,78.21
2023-05-25T01:34:14.500Z,77.82
2023-05-25T01:38:03.051Z,78.21
2023-05-25T01:41:53.050Z,78.42
2023-05-25T01:45:41.645Z,78.52
2023-05-25T01:49:32.101Z,78.69
2023-05-25T01:53:20.678Z,78.84
2023-05-25T01:57:09.256Z,78.72
2023-05-25T02:00:57.944Z,78.48
2023-05-25T02:04:46.547Z,78.31
2023-05-25T02:08:35.446Z,78.56
2023-05-25T02:12:16.632Z,79.13
2023-05-25T02:15:34.169Z,79.37
2023-05-25T02:19:11.561Z,79.54
2023-05-25T02:23:00.019Z,79.64
2023-05-25T02:26:41.259Z,79.56
2023-05-25T02:30:29.729Z,79.49
2023-05-25T02:34:18.173Z,79.27
2023-05-25T02:38:06.642Z,79.12
2023-05-25T02:41:55.107Z,79.11
2023-05-25T02:45:43.803Z,79.87
2023-05-25T02:49:32.634Z,81.17
2023-05-25T02:53:15.499Z,81.87
2023-05-25T02:57:03.970Z,82.25
2023-05-25T03:00:52.703Z,82.47
2023-05-25T03:04:41.224Z,82.84
2023-05-25T03:08:28.847Z,83.16
2023-05-25T03:12:17.408Z,83.53
2023-05-25T03:16:05.089Z,83.98
2023-05-25T03:19:55.796Z,84.22
2023-05-25T03:23:45.332Z,84.63
2023-05-25T03:27:33.522Z,85.02
2023-05-25T03:31:19.813Z,85.41
2023-05-25T03:35:08.485Z,85.63
2023-05-25T03:38:57.025Z,85.93
2023-05-25T03:42:45.608Z,86.23
2023-05-25T03:46:23.065Z,86.46
2023-05-25T03:50:11.728Z,86.57
2023-05-25T03:54:00.196Z,86.63
2023-05-25T03:57:49.918Z,86.68
2023-05-25T04:01:28.613Z,86.39
2023-05-25T04:05:17.193Z,86.40
2023-05-25T04:09:05.714Z,85.80
2023-05-25T04:12:55.702Z,85.19
2023-05-25T04:16:44.333Z,84.23
2023-05-25T04:20:33.194Z,82.13
2023-05-25T04:24:21.954Z,79.49
2023-05-25T04:28:11.049Z,76.14
2023-05-25T04:32:03.332Z,73.20
2023-05-25T04:35:50.967Z,71.85
2023-05-25T04:39:39.585Z,70.40
2023-05-25T04:43:13.880Z,69.66
2023-05-25T04:46:47.992Z,68.53
2023-05-25T04:50:09.493Z,67.33
2023-05-25T04:53:20.681Z,66.52
2023-05-25T04:57:02.000Z,66.50
2023-05-25T05:00:52.505Z,65.92
2023-05-25T05:04:41.786Z,65.77
2023-05-25T05:08:30.369Z,65.30
2023-05-25T05:12:20.198Z,65.00
2023-05-25T05:16:08.928Z,64.48
2023-05-25T05:19:58.145Z,63.41
2023-05-25T05:23:46.772Z,62.92
2023-05-25T05:27:35.251Z,61.20
2023-05-25T05:31:25.420Z,59.93
2023-05-25T05:35:13.940Z,58.98
2023-05-25T05:39:02.626Z,57.49
2023-05-25T05:42:51.183Z,56.47
2023-05-25T05:46:39.680Z,56.04
2023-05-25T05:50:28.207Z,55.38
2023-05-25T05:54:16.715Z,55.35
2023-05-25T05:58:05.362Z,54.52
2023-05-25T06:01:53.971Z,53.94
2023-05-25T06:05:41.633Z,54.00
2023-05-25T06:09:29.363Z,53.85
2023-05-25T06:13:18.116Z,52.75
2023-05-25T06:17:06.896Z,51.68
2023-05-25T06:20:55.612Z,51.15
2023-05-25T06:24:42.889Z,50.91
2023-05-25T06:28:21.499Z,50.42
2023-05-25T06:31:22.333Z,49.73
2023-05-25T06:35:09.665Z,49.95
2023-05-25T06:38:47.369Z,49.45
2023-05-25T06:42:08.132Z,48.98
2023-05-25T06:45:56.925Z,48.11
2023-05-25T06:49:45.452Z,47.38
2023-05-25T06:53:23.747Z,46.47
2023-05-25T06:56:42.309Z,46.22
2023-05-25T06:59:22.110Z,45.49
2023-05-25T07:03:04.701Z,45.96
2023-05-25T07:06:22.475Z,45.46
2023-05-25T07:10:00.075Z,43.63
2023-05-25T07:13:17.951Z,43.48
2023-05-25T07:16:51.612Z,42.18
2023-05-25T07:20:25.601Z,41.52
2023-05-25T07:24:02.714Z,41.41
2023-05-25T07:27:40.181Z,40.98
2023-05-25T07:31:28.764Z,40.52
2023-05-25T07:35:17.312Z,39.33
2023-05-25T07:38:56.967Z,39.54
2023-05-25T07:42:45.563Z,38.82
2023-05-25T07:46:22.567Z,38.64
2023-05-25T07:50:11.227Z,38.68
2023-05-25T07:53:40.386Z,38.33
2023-05-25T07:56:59.299Z,37.52
2023-05-25T08:00:33.024Z,38.43
2023-05-25T08:04:14.483Z,38.55
2023-05-25T08:07:51.641Z,37.37
2023-05-25T08:11:38.826Z,37.34
2023-05-25T08:15:27.795Z,37.48
2023-05-25T08:19:16.175Z,36.86
2023-05-25T08:23:04.689Z,36.26
2023-05-25T08:26:54.866Z,35.67
2023-05-25T08:30:43.931Z,35.80
2023-05-25T08:34:25.155Z,35.78
2023-05-25T08:38:13.635Z,35.70
2023-05-25T08:42:05.256Z,35.49
2023-05-25T08:45:48.089Z,34.79
2023-05-25T08:49:36.726Z,34.68
2023-05-25T08:53:25.326Z,34.24
2023-05-25T08:57:25.891Z,34.64
2023-05-25T09:01:17.306Z,35.42
2023-05-25T09:05:05.824Z,35.04
2023-05-25T09:08:54.442Z,34.98
2023-05-25T09:12:43.083Z,35.77
2023-05-25T09:16:31.681Z,35.66
2023-05-25T09:20:20.301Z,35.44
2023-05-25T09:24:08.805Z,34.50
2023-05-25T09:28:04.832Z,35.91
2023-05-25T09:31:59.140Z,36.90
2023-05-25T09:35:47.675Z,37.40
2023-05-25T09:39:35.098Z,38.62
2023-05-25T09:43:39.530Z,37.55
2023-05-25T09:47:30.395Z,35.60
2023-05-25T09:51:18.986Z,35.28
2023-05-25T09:55:07.878Z,35.59
2023-05-25T09:58:49.282Z,36.55
2023-05-25T10:02:30.692Z,37.64
2023-05-25T10:06:16.621Z,39.00
2023-05-25T10:10:05.300Z,39.81
2023-05-25T10:13:53.888Z,40.81
2023-05-25T10:17:40.551Z,42.19
2023-05-25T10:21:29.071Z,43.08
2023-05-25T10:25:23.845Z,43.65
2023-05-25T10:29:15.506Z,44.18
2023-05-25T10:33:03.085Z,43.98
2023-05-25T10:36:51.662Z,43.51
2023-05-25T10:40:40.154Z,42.75
2023-05-25T10:44:28.743Z,43.26
2023-05-25T10:48:21.081Z,44.26
2023-05-25T10:52:18.749Z,45.00
2023-05-25T10:55:46.650Z,45.47
2023-05-25T10:59:24.190Z,45.46
2023-05-25T11:03:08.909Z,45.35
2023-05-25T11:07:00.184Z,45.80
2023-05-25T11:10:57.999Z,46.16
2023-05-25T11:14:46.481Z,46.39
2023-05-25T11:18:41.049Z,47.09
2023-05-25T11:22:22.837Z,47.54
2023-05-25T11:26:17.561Z,47.60
2023-05-25T11:30:15.381Z,47.47
2023-05-25T11:34:02.853Z,47.99
2023-05-25T11:37:50.953Z,48.28
2023-05-25T11:41:39.387Z,47.98
2023-05-25T11:45:30.954Z,48.00
2023-05-25T11:49:19.430Z,47.77
2023-05-25T11:53:07.921Z,47.75
2023-05-25T11:56:56.540Z,47.55
2023-05-25T12:00:32.460Z,47.83
2023-05-25T12:04:30.202Z,47.93
2023-05-25T12:08:18.926Z,46.95
2023-05-25T12:12:07.452Z,45.41
2023-05-25T12:15:58.941Z,43.63
2023-05-25T12:19:47.485Z,41.33
2023-05-25T12:23:29.055Z,40.63
2023-05-25T12:27:12.074Z,38.83
2023-05-25T12:31:01.733Z,36.47
2023-05-25T12:35:04.365Z,34.80
2023-05-25T12:38:55.740Z,33.23
2023-05-25T12:42:43.146Z,32.47
2023-05-25T12:46:32.078Z,31.31
2023-05-25T12:50:32.877Z,30.69
2023-05-25T12:54:30.504Z,30.22
2023-05-25T12:58:19.037Z,30.52
2023-05-25T13:02:08.821Z,31.13
2023-05-25T13:05:57.574Z,31.40
2023-05-25T13:09:45.425Z,31.89
2023-05-25T13:13:33.949Z,31.83
2023-05-25T13:17:22.708Z,32.64
2023-05-25T13:21:14.370Z,33.11
2023-05-25T13:25:02.916Z,32.85
2023-05-25T13:28:51.437Z,33.88
2023-05-25T13:32:39.954Z,34.07
2023-05-25T13:36:28.564Z,34.31
2023-05-25T13:40:17.018Z,34.28
2023-05-25T13:44:05.471Z,34.27
2023-05-25T13:47:53.037Z,34.65
2023-05-25T13:51:41.798Z,35.34
2023-05-25T13:55:30.789Z,35.55
2023-05-25T13:59:19.273Z,35.68
2023-05-25T14:03:07.922Z,35.98
2023-05-25T14:06:55.860Z,36.16
2023-05-25T14:10:44.960Z,36.88
2023-05-25T14:14:34.175Z,37.08
2023-05-25T14:18:21.820Z,37.51
2023-05-25T14:22:12.480Z,38.13
2023-05-25T14:25:42.756Z,39.14
2023-05-25T14:29:31.328Z,39.55
2023-05-25T14:33:18.640Z,39.87
2023-05-25T14:37:07.265Z,40.15
2023-05-25T14:40:56.434Z,40.83
2023-05-25T14:44:44.898Z,40.23
2023-05-25T14:48:29.172Z,39.76
2023-05-25T14:52:17.797Z,40.05
2023-05-25T14:55:56.631Z,39.96
2023-05-25T14:59:45.296Z,39.23
2023-05-25T15:03:34.078Z,38.91
2023-05-25T15:07:21.583Z,37.96
2023-05-25T15:10:52.068Z,36.78
2023-05-25T15:14:14.705Z,35.56
2023-05-25T15:17:23.207Z,34.31
2023-05-25T15:20:39.140Z,33.89
2023-05-25T15:24:28.454Z,34.74
2023-05-25T15:28:10.814Z,35.81
2023-05-25T15:31:59.992Z,36.30
2023-05-25T15:35:48.754Z,36.63
2023-05-25T15:39:37.280Z,37.48
2023-05-25T15:43:25.765Z,37.88
2023-05-25T15:47:13.982Z,38.00
2023-05-25T15:51:03.838Z,37.59
2023-05-25T15:54:51.262Z,37.70
2023-05-25T15:58:39.802Z,37.82
2023-05-25T16:02:28.707Z,37.88
2023-05-25T16:06:17.345Z,38.68
2023-05-25T16:10:05.791Z,39.23
2023-05-25T16:13:54.353Z,39.45
2023-05-25T16:17:42.885Z,39.47
2023-05-25T16:21:31.383Z,39.67
2023-05-25T16:25:21.550Z,39.99
2023-05-25T16:29:10.061Z,39.77
2023-05-25T16:32:58.893Z,40.75
2023-05-25T16:36:30.136Z,41.39
2023-05-25T16:40:18.775Z,41.86
2023-05-25T16:44:07.268Z,42.28
2023-05-25T16:47:55.804Z,43.36
2023-05-25T16:51:44.672Z,44.56
2023-05-25T16:54:43.943Z,44.10
2023-05-25T16:58:15.366Z,44.03
2023-05-25T17:01:23.717Z,45.11
2023-05-25T17:05:12.207Z,46.50
2023-05-25T17:08:51.304Z,47.71
2023-05-25T17:12:39.810Z,48.99
2023-05-25T17:16:28.393Z,49.60
2023-05-25T17:20:17.812Z,51.00
2023-05-25T17:24:06.318Z,52.21
2023-05-25T17:27:54.806Z,53.35
2023-05-25T17:31:43.330Z,54.04
2023-05-25T17:35:31.995Z,54.71
2023-05-25T17:39:20.616Z,56.00
2023-05-25T17:43:09.215Z,56.91
2023-05-25T17:46:57.690Z,57.35
2023-05-25T17:50:47.055Z,58.48
2023-05-25T17:54:35.564Z,59.49
2023-05-25T17:58:24.038Z,60.23
2023-05-25T18:02:12.619Z,61.13
2023-05-25T18:06:01.942Z,61.47
2023-05-25T18:09:50.879Z,61.37
2023-05-25T18:13:32.351Z,62.06
2023-05-25T18:17:19.301Z,62.62
2023-05-25T18:20:34.441Z,63.70
2023-05-25T18:24:23.224Z,64.26
2023-05-25T18:28:12.147Z,64.63
2023-05-25T18:32:00.814Z,65.52
2023-05-25T18:35:42.677Z,66.06
2023-05-25T18:39:31.594Z,66.10
2023-05-25T18:43:19.850Z,66.39
2023-05-25T18:46:17.405Z,67.30
2023-05-25T18:50:06.065Z,68.01
2023-05-25T18:53:54.698Z,68.59
2023-05-25T18:57:36.697Z,69.49
2023-05-25T19:01:25.281Z,69.96
2023-05-25T19:05:08.234Z,70.19
2023-05-25T19:08:57.235Z,70.37
2023-05-25T19:12:46.885Z,70.29
2023-05-25T19:16:35.776Z,70.34
2023-05-25T19:20:24.535Z,70.66
2023-05-25T19:24:13.161Z,71.21
2023-05-25T19:28:02.019Z,71.49
2023-05-25T19:31:52.923Z,71.82
2023-05-25T19:35:41.624Z,72.22
2023-05-25T19:39:30.127Z,72.71
2023-05-25T19:43:19.001Z,72.88
2023-05-25T19:47:07.763Z,72.65
2023-05-25T19:50:56.576Z,72.75
2023-05-25T19:55:30.565Z,73.42
2023-05-25T19:58:48.713Z,74.02
2023-05-25T20:02:38.231Z,74.29
2023-05-25T20:06:26.918Z,74.15
2023-05-25T20:10:08.632Z,74.25
2023-05-25T20:13:56.614Z,74.37
2023-05-25T20:17:45.471Z,74.16
2023-05-25T20:21:33.969Z,74.30
2023-05-25T20:25:22.471Z,74.73
2023-05-25T20:29:11.071Z,75.38
2023-05-25T20:32:44.281Z,75.61
2023-05-25T20:36:33.201Z,75.65
2023-05-25T20:40:18.318Z,75.81
2023-05-25T20:43:50.214Z,75.73
2023-05-25T20:47:38.725Z,75.56
2023-05-25T20:50:19.932Z,75.29
2023-05-25T20:54:05.131Z,75.38
2023-05-25T20:57:52.689Z,75.60
2023-05-25T21:01:30.558Z,75.77
2023-05-25T21:05:19.345Z,75.75
2023-05-25T21:09:01.740Z,75.96
2023-05-25T21:12:50.308Z,76.17
2023-05-25T21:16:38.947Z,76.10
2023-05-25T21:20:20.269Z,75.83
2023-05-25T21:24:08.870Z,75.77
2023-05-25T21:27:21.182Z,75.59
2023-05-25T21:31:09.770Z,75.17
2023-05-25T21:34:58.327Z,75.35
2023-05-25T21:38:46.825Z,75.29
2023-05-25T21:42:35.363Z,75.46
2023-05-25T21:46:23.818Z,75.24
2023-05-25T21:50:12.277Z,74.64
2023-05-25T21:54:00.875Z,73.70
2023-05-25T21:57:49.421Z,73.04
2023-05-25T22:01:30.671Z,72.51
2023-05-25T22:05:18.155Z,72.21
2023-05-25T22:08:59.619Z,72.10
2023-05-25T22:12:47.551Z,72.18
2023-05-25T22:16:35.251Z,72.35
2023-05-25T22:20:23.787Z,72.72
2023-05-25T22:24:12.367Z,73.29
2023-05-25T22:28:00.857Z,73.46
2023-05-25T22:31:49.881Z,73.72
2023-05-25T22:35:38.536Z,73.71
2023-05-25T22:39:27.045Z,73.89
2023-05-25T22:43:14.227Z,73.98
2023-05-25T22:47:02.773Z,74.45
2023-05-25T22:50:51.369Z,74.85
2023-05-25T22:54:35.180Z,75.00
2023-05-25T22:58:23.671Z,75.29
2023-05-25T23:02:12.233Z,75.32
2023-05-25T23:06:01.001Z,75.15
2023-05-25T23:09:42.468Z,75.37
2023-05-25T23:13:31.800Z,76.09
2023-05-25T23:17:13.338Z,76.56
2023-05-25T23:21:01.924Z,76.69
2023-05-25T23:24:44.539Z,76.49
2023-05-25T23:28:33.636Z,76.43
2023-05-25T23:32:22.158Z,76.58
2023-05-25T23:36:10.714Z,76.67
2023-05-25T23:39:59.640Z,76.99
2023-05-25T23:43:38.374Z,77.36
2023-05-25T23:47:26.829Z,77.09
2023-05-25T23:51:14.270Z,77.35
2023-05-25T23:55:01.466Z,77.93
2023-05-25T23:58:50.071Z,77.89
